»·PEaware :: ACA786 KLAX-CYYZ

ACA786 :: KLAX-CYYZ

FLIGHT INFORMATION

Flight Status: Arrived
Operator:
Air Canada
More flights by this operator :: More flights under this callsign
Pilot: Cam E. (11112)
Aircraft: Unknown
(B77L)
More flights by this aircraft type
Origin: KLAX Los Angeles Intl
United States
Destination: CYYZ Toronto/Pearson Intl
Canada
More flights between these airports :: More routes between these airports
Route: ORCKA1 LAS HVE CYS/N0484F370 J148 ONL MCW J16 SIBER BAE MKG MONEE NUBER2
File this flight plan on PilotEdge
Remarks:
Altitude:
(Current/Filed)
35,000ft
Speed:
(Current/Filed)
487kts
Departed: 30-Jul-17 10:57 AM
Arrived: 30-Jul-17 03:07 PM
Distance/Time
Traveled:
1886nm/4:10
Distance/Time
To Go:
Arrived

Flight Plot

Page will automatically refresh every two minutes.

Flight plan parsing failed; only flown route is shown


Map Options




Map Legend


Flown Route
Filed Route
Departure Airport
Arrival Airport
Navaid (VOR, NDB)
Fix

Horizontal Profiles

Position Reports

Time Latitude Longitude Heading Altitude Ground
Speed
30-Jul-17 10:02 33.940086 -118.401302 308 142ft 0kts
30-Jul-17 10:03 33.940086 -118.401302 308 142ft 0kts
30-Jul-17 10:04 33.940086 -118.401302 308 142ft 0kts
30-Jul-17 10:05 33.940086 -118.401302 308 142ft 0kts
30-Jul-17 10:06 33.940086 -118.401302 308 142ft 0kts
30-Jul-17 10:07 33.940086 -118.401302 308 142ft 0kts
30-Jul-17 10:08 33.940086 -118.401302 308 142ft 0kts
30-Jul-17 10:09 33.940086 -118.401302 308 142ft 0kts
30-Jul-17 10:10 33.940086 -118.401302 308 142ft 0kts
30-Jul-17 10:11 33.940086 -118.401302 308 142ft 0kts
30-Jul-17 10:12 33.940086 -118.401302 308 142ft 0kts
30-Jul-17 10:13 33.940086 -118.401302 308 142ft 0kts
30-Jul-17 10:14 33.940086 -118.401302 308 142ft 0kts
30-Jul-17 10:15 33.940086 -118.401302 308 142ft 0kts
30-Jul-17 10:16 33.940086 -118.401302 308 142ft 0kts
30-Jul-17 10:17 33.940086 -118.401302 308 142ft 0kts
30-Jul-17 10:18 33.940086 -118.401302 308 142ft 0kts
30-Jul-17 10:19 33.940086 -118.401302 308 142ft 0kts
30-Jul-17 10:20 33.940086 -118.401302 308 142ft 0kts
30-Jul-17 10:21 33.940086 -118.401302 308 142ft 0kts
30-Jul-17 10:22 33.940086 -118.401302 308 142ft 0kts
30-Jul-17 10:23 33.940086 -118.401302 308 142ft 0kts
30-Jul-17 10:24 33.940086 -118.401302 308 142ft 0kts
30-Jul-17 10:25 33.940086 -118.401302 308 142ft 0kts
30-Jul-17 10:26 33.940086 -118.401302 308 142ft 0kts
30-Jul-17 10:27 33.940086 -118.401302 308 142ft 0kts
30-Jul-17 10:28 33.940086 -118.401302 308 142ft 0kts
30-Jul-17 10:29 33.940086 -118.401302 308 142ft 0kts
30-Jul-17 10:30 33.940086 -118.401302 308 142ft 0kts
30-Jul-17 10:31 33.940086 -118.401302 308 142ft 0kts
30-Jul-17 10:32 33.940086 -118.401302 308 142ft 0kts
30-Jul-17 10:33 33.940086 -118.401302 308 142ft 0kts
30-Jul-17 10:34 33.940086 -118.401302 308 142ft 0kts
30-Jul-17 10:35 33.940086 -118.401302 308 142ft 0kts
30-Jul-17 10:36 33.940086 -118.401302 308 142ft 0kts
30-Jul-17 10:37 33.940086 -118.401302 308 142ft 0kts
30-Jul-17 10:38 33.940086 -118.401302 308 142ft 0kts
30-Jul-17 10:39 33.940086 -118.401302 308 142ft 0kts
30-Jul-17 10:40 33.940086 -118.401302 308 142ft 0kts
30-Jul-17 10:41 33.940086 -118.401302 308 142ft 0kts
30-Jul-17 10:42 33.940086 -118.401302 308 142ft 0kts
30-Jul-17 10:43 33.940086 -118.401302 308 142ft 0kts
30-Jul-17 10:44 33.940086 -118.401302 308 142ft 0kts
30-Jul-17 10:45 33.940086 -118.401302 308 142ft 0kts
30-Jul-17 10:46 33.940086 -118.401302 308 142ft 0kts
30-Jul-17 10:47 33.940020 -118.401201 308 142ft 2kts
30-Jul-17 10:48 33.939544 -118.401014 50 142ft 2kts
30-Jul-17 10:49 33.939466 -118.401218 88 142ft 0kts
30-Jul-17 10:50 33.939466 -118.401218 88 142ft 0kts
30-Jul-17 10:51 33.939329 -118.400748 131 142ft 6kts
30-Jul-17 10:52 33.939046 -118.397307 83 142ft 13kts
30-Jul-17 10:53 33.939541 -118.392473 83 142ft 15kts
30-Jul-17 10:54 33.940058 -118.387364 83 142ft 15kts
30-Jul-17 10:55 33.940587 -118.382233 83 142ft 15kts
30-Jul-17 10:56 33.940677 -118.381333 83 142ft 0kts
30-Jul-17 10:57 33.940677 -118.381333 83 142ft 0kts
30-Jul-17 10:58 33.940699 -118.380989 90 142ft 6kts
30-Jul-17 10:59 33.939718 -118.381280 263 142ft 4kts
30-Jul-17 11:00 33.937421 -118.405285 263 569ft 187kts
30-Jul-17 11:01 33.925822 -118.478455 247 3057ft 251kts
30-Jul-17 11:02 33.901544 -118.552189 248 4518ft 258kts
30-Jul-17 11:03 33.873199 -118.638980 248 12777ft 285kts
30-Jul-17 11:04 33.840632 -118.741088 258 12994ft 341kts
30-Jul-17 11:05 33.876708 -118.840598 330 13896ft 374kts
30-Jul-17 11:06 33.972937 -118.838667 35 18105ft 379kts
30-Jul-17 11:07 34.019589 -118.735050 93 19005ft 363kts
30-Jul-17 11:08 33.987567 -118.617177 101 22892ft 388kts
30-Jul-17 11:09 33.964938 -118.489377 103 23995ft 392kts
30-Jul-17 11:10 33.973871 -118.359456 63 25232ft 431kts
30-Jul-17 11:11 34.040148 -118.242965 56 30370ft 453kts
30-Jul-17 11:12 34.113251 -118.114214 56 34942ft 488kts
30-Jul-17 11:13 34.189761 -117.978687 56 35085ft 493kts
30-Jul-17 11:14 34.266607 -117.841811 56 35143ft 493kts
30-Jul-17 11:15 34.342772 -117.705612 56 35141ft 493kts
30-Jul-17 11:16 34.422443 -117.571448 54 35157ft 494kts
30-Jul-17 11:17 34.502277 -117.437357 54 35157ft 494kts
30-Jul-17 11:18 34.581520 -117.303769 54 35154ft 494kts
30-Jul-17 11:19 34.661181 -117.168946 54 35155ft 494kts
30-Jul-17 11:20 34.740691 -117.033976 55 35127ft 496kts
30-Jul-17 11:21 34.822297 -116.894882 55 35061ft 513kts
30-Jul-17 11:22 34.904588 -116.753866 55 35067ft 515kts
30-Jul-17 11:23 34.999568 -116.622970 48 35069ft 521kts
30-Jul-17 11:24 35.097705 -116.493380 48 35106ft 523kts
30-Jul-17 11:25 35.195781 -116.363458 48 35118ft 523kts
30-Jul-17 11:26 35.293465 -116.233554 48 35116ft 523kts
30-Jul-17 11:27 35.391248 -116.103016 48 35117ft 523kts
30-Jul-17 11:28 35.488696 -115.972426 48 35118ft 523kts
30-Jul-17 11:29 35.586292 -115.841129 48 35124ft 522kts
30-Jul-17 11:30 35.683209 -115.709156 49 35136ft 523kts
30-Jul-17 11:31 35.779395 -115.576706 49 35141ft 522kts
30-Jul-17 11:32 35.875617 -115.443681 49 35137ft 522kts
30-Jul-17 11:33 35.970474 -115.312048 49 35123ft 522kts
30-Jul-17 11:34 36.066365 -115.178457 49 35124ft 522kts
30-Jul-17 11:35 36.173307 -115.059192 41 35075ft 522kts
30-Jul-17 11:36 36.282024 -114.941797 41 35061ft 520kts
30-Jul-17 11:37 36.390395 -114.824370 41 35063ft 520kts
30-Jul-17 11:38 36.498461 -114.706887 41 35081ft 521kts
30-Jul-17 11:39 36.607222 -114.588204 41 35070ft 524kts
30-Jul-17 11:40 36.711819 -114.465009 54 35063ft 518kts
30-Jul-17 11:41 36.783727 -114.311647 63 35115ft 516kts
30-Jul-17 11:42 36.852938 -114.155791 63 35147ft 516kts
30-Jul-17 11:43 36.921818 -113.999731 63 35149ft 516kts
30-Jul-17 11:44 36.990657 -113.842985 63 35152ft 520kts
30-Jul-17 11:45 37.059831 -113.683699 64 35146ft 521kts
30-Jul-17 11:46 37.126530 -113.523874 64 35145ft 524kts
30-Jul-17 11:47 37.193476 -113.362753 64 35146ft 524kts
30-Jul-17 11:48 37.260500 -113.200707 64 35178ft 527kts
30-Jul-17 11:49 37.324472 -113.045252 64 35283ft 523kts
30-Jul-17 11:50 37.390537 -112.883929 64 35315ft 521kts
30-Jul-17 11:51 37.456384 -112.722368 64 35365ft 520kts
30-Jul-17 11:52 37.521735 -112.561200 64 35463ft 520kts
30-Jul-17 11:53 37.586823 -112.399840 64 35479ft 523kts
30-Jul-17 11:54 37.637809 -112.274943 60 35465ft 521kts
30-Jul-17 11:55 37.715311 -112.120976 59 35476ft 521kts
30-Jul-17 11:56 37.792606 -111.967342 59 35478ft 521kts
30-Jul-17 11:57 37.869771 -111.813276 59 35479ft 521kts
30-Jul-17 11:58 37.946586 -111.659187 59 35480ft 521kts
30-Jul-17 11:59 38.023448 -111.504274 59 35439ft 521kts
30-Jul-17 12:00 38.099826 -111.349607 59 35255ft 521kts
30-Jul-17 12:01 38.175654 -111.195332 59 35234ft 521kts
30-Jul-17 12:02 38.252033 -111.039168 59 35235ft 521kts
30-Jul-17 12:03 38.327675 -110.883769 59 35241ft 521kts
30-Jul-17 12:04 38.403556 -110.726904 58 35220ft 524kts
30-Jul-17 12:05 38.482460 -110.572461 57 35221ft 521kts
30-Jul-17 12:06 38.561568 -110.418469 57 35222ft 521kts
30-Jul-17 12:07 38.640214 -110.264640 57 35210ft 521kts
30-Jul-17 12:08 38.718887 -110.110002 57 35201ft 521kts
30-Jul-17 12:09 38.797541 -109.954665 57 35203ft 521kts
30-Jul-17 12:10 38.875600 -109.799760 57 35204ft 521kts
30-Jul-17 12:11 38.954152 -109.643109 57 35206ft 527kts
30-Jul-17 12:12 39.033443 -109.484197 57 35209ft 533kts
30-Jul-17 12:13 39.112599 -109.324814 58 35202ft 534kts
30-Jul-17 12:14 39.191797 -109.164512 58 35222ft 533kts
30-Jul-17 12:15 39.270738 -109.003901 58 35226ft 531kts
30-Jul-17 12:16 39.348974 -108.843973 58 35228ft 530kts
30-Jul-17 12:17 39.427185 -108.683265 58 35230ft 530kts
30-Jul-17 12:18 39.504904 -108.522752 58 35231ft 530kts
30-Jul-17 12:19 39.582656 -108.361308 58 35250ft 530kts
30-Jul-17 12:20 39.658511 -108.203090 58 35327ft 530kts
30-Jul-17 12:21 39.735829 -108.040948 58 35309ft 530kts
30-Jul-17 12:22 39.812712 -107.878886 58 35337ft 530kts
30-Jul-17 12:23 39.889313 -107.716579 58 35355ft 530kts
30-Jul-17 12:24 39.965951 -107.553346 58 35343ft 530kts
30-Jul-17 12:25 40.042047 -107.390419 58 35371ft 529kts
30-Jul-17 12:26 40.117805 -107.227385 59 35369ft 529kts
30-Jul-17 12:27 40.193705 -107.063149 59 35372ft 529kts
30-Jul-17 12:28 40.268702 -106.899949 59 35378ft 525kts
30-Jul-17 12:29 40.343000 -106.737523 59 35385ft 521kts
30-Jul-17 12:30 40.399578 -106.613275 59 35385ft 521kts
30-Jul-17 12:31 40.473429 -106.450286 59 35390ft 521kts
30-Jul-17 12:32 40.546647 -106.287860 59 35385ft 521kts
30-Jul-17 12:33 40.615070 -106.135240 59 35445ft 521kts
30-Jul-17 12:34 40.667654 -106.017448 59 35471ft 521kts
30-Jul-17 12:35 40.720420 -105.898779 59 35452ft 521kts
30-Jul-17 12:36 40.790045 -105.741512 59 35431ft 521kts
30-Jul-17 12:37 40.862695 -105.576528 59 35433ft 521kts
30-Jul-17 12:38 40.934875 -105.411721 59 35420ft 521kts
30-Jul-17 12:39 41.006997 -105.246072 60 35421ft 526kts
30-Jul-17 12:40 41.090542 -105.052961 59 35405ft 536kts
30-Jul-17 12:41 41.160467 -104.890590 58 35401ft 541kts
30-Jul-17 12:42 41.218740 -104.733497 70 35402ft 539kts
30-Jul-17 12:43 41.248003 -104.615919 71 35387ft 539kts
30-Jul-17 12:44 41.284658 -104.461080 72 35388ft 539kts
30-Jul-17 12:45 41.326404 -104.282642 72 35344ft 539kts
30-Jul-17 12:46 41.364214 -104.119632 72 35290ft 539kts
30-Jul-17 12:47 41.407883 -103.929953 73 35292ft 540kts
30-Jul-17 12:48 41.451286 -103.739822 73 35293ft 540kts
30-Jul-17 12:49 41.494089 -103.550704 72 35280ft 540kts
30-Jul-17 12:50 41.535971 -103.364058 72 35262ft 540kts
30-Jul-17 12:51 41.578401 -103.173373 73 35241ft 540kts
30-Jul-17 12:52 41.620691 -102.981263 72 35230ft 542kts
30-Jul-17 12:53 41.662664 -102.789403 72 35231ft 539kts
30-Jul-17 12:54 41.704150 -102.597744 72 35233ft 539kts
30-Jul-17 12:55 41.745243 -102.406146 72 35234ft 539kts
30-Jul-17 12:56 41.785925 -102.214776 73 35227ft 539kts
30-Jul-17 12:57 41.825920 -102.024859 73 35220ft 539kts
30-Jul-17 12:58 41.866070 -101.832479 73 35217ft 539kts
30-Jul-17 12:59 41.905852 -101.640082 73 35214ft 539kts
30-Jul-17 13:00 41.945367 -101.447178 73 35214ft 539kts
30-Jul-17 13:01 41.982111 -101.266234 74 35199ft 539kts
30-Jul-17 13:02 42.019357 -101.081017 74 35201ft 539kts
30-Jul-17 13:03 42.056347 -100.895172 74 35203ft 538kts
30-Jul-17 13:04 42.093769 -100.705776 73 35204ft 538kts
30-Jul-17 13:05 42.125327 -100.544607 73 35196ft 537kts
30-Jul-17 13:06 42.162208 -100.354547 73 35198ft 537kts
30-Jul-17 13:07 42.195754 -100.180003 74 35181ft 537kts
30-Jul-17 13:08 42.232432 -99.987326 74 35166ft 538kts
30-Jul-17 13:09 42.268921 -99.793743 74 35166ft 538kts
30-Jul-17 13:10 42.305152 -99.599564 74 35168ft 538kts
30-Jul-17 13:11 42.341139 -99.404699 74 35188ft 538kts
30-Jul-17 13:12 42.375114 -99.218882 75 35199ft 538kts
30-Jul-17 13:13 42.410224 -99.024589 74 35227ft 538kts
30-Jul-17 13:14 42.445460 -98.827722 74 35231ft 542kts
30-Jul-17 13:15 42.478398 -98.630031 77 35231ft 539kts
30-Jul-17 13:16 42.506248 -98.431564 77 35234ft 540kts
30-Jul-17 13:17 42.532457 -98.241615 78 35226ft 540kts
30-Jul-17 13:18 42.559521 -98.042709 78 35228ft 540kts
30-Jul-17 13:19 42.586194 -97.844050 78 35230ft 540kts
30-Jul-17 13:20 42.612643 -97.644245 78 35232ft 540kts
30-Jul-17 13:21 42.638737 -97.444459 78 35234ft 540kts
30-Jul-17 13:22 42.664411 -97.245093 78 35228ft 540kts
30-Jul-17 13:23 42.689788 -97.044384 78 35229ft 542kts
30-Jul-17 13:24 42.714922 -96.843758 77 35229ft 542kts
30-Jul-17 13:25 42.739466 -96.644770 77 35232ft 542kts
30-Jul-17 13:26 42.763902 -96.443417 77 35239ft 542kts
30-Jul-17 13:27 42.787720 -96.244239 78 35242ft 543kts
30-Jul-17 13:28 42.811466 -96.042382 78 35245ft 543kts
30-Jul-17 13:29 42.834868 -95.840350 78 35247ft 543kts
30-Jul-17 13:30 42.857939 -95.637955 78 35249ft 543kts
30-Jul-17 13:31 42.880615 -95.435755 78 35256ft 543kts
30-Jul-17 13:32 42.902223 -95.240010 79 35260ft 543kts
30-Jul-17 13:33 42.923375 -95.045108 79 35255ft 544kts
30-Jul-17 13:34 42.944835 -94.843227 78 35255ft 537kts
30-Jul-17 13:35 42.965377 -94.648190 78 35257ft 531kts
30-Jul-17 13:36 42.985641 -94.452152 78 35259ft 531kts
30-Jul-17 13:37 43.005248 -94.258898 79 35250ft 531kts
30-Jul-17 13:38 43.024904 -94.061669 79 35252ft 530kts
30-Jul-17 13:39 43.044219 -93.864215 79 35261ft 529kts
30-Jul-17 13:40 43.063248 -93.666177 79 35265ft 529kts
30-Jul-17 13:41 43.081924 -93.468167 79 35271ft 533kts
30-Jul-17 13:42 43.095827 -93.272101 85 35271ft 531kts
30-Jul-17 13:43 43.101124 -93.076951 85 35277ft 530kts
30-Jul-17 13:44 43.105506 -92.889178 85 35269ft 519kts
30-Jul-17 13:45 43.109758 -92.694561 85 35269ft 518kts
30-Jul-17 13:46 43.113652 -92.500534 85 35270ft 519kts
30-Jul-17 13:47 43.117163 -92.310078 86 35263ft 518kts
30-Jul-17 13:48 43.120298 -92.121465 86 35256ft 519kts
30-Jul-17 13:49 43.122902 -91.948412 86 35249ft 519kts
30-Jul-17 13:50 43.124562 -91.826706 86 35249ft 518kts
30-Jul-17 13:51 43.126530 -91.673261 86 35252ft 519kts
30-Jul-17 13:52 43.128399 -91.506549 86 35243ft 518kts
30-Jul-17 13:53 43.130060 -91.337960 86 35240ft 522kts
30-Jul-17 13:54 43.131466 -91.168261 87 35227ft 521kts
30-Jul-17 13:55 43.132791 -90.972764 87 35230ft 514kts
30-Jul-17 13:56 43.133729 -90.780961 87 35243ft 514kts
30-Jul-17 13:57 43.134372 -90.585758 87 35259ft 518kts
30-Jul-17 13:58 43.134673 -90.389590 87 35250ft 517kts
30-Jul-17 13:59 43.134651 -90.196412 88 35250ft 514kts
30-Jul-17 14:00 43.134310 -90.001835 87 35239ft 514kts
30-Jul-17 14:01 43.133609 -89.806373 88 35243ft 515kts
30-Jul-17 14:02 43.132610 -89.612715 88 35247ft 515kts
30-Jul-17 14:03 43.131243 -89.417617 88 35251ft 514kts
30-Jul-17 14:04 43.129583 -89.223899 88 35245ft 515kts
30-Jul-17 14:05 43.127559 -89.028209 88 35247ft 515kts
30-Jul-17 14:06 43.125174 -88.833111 88 35241ft 517kts
30-Jul-17 14:07 43.122525 -88.636868 88 35242ft 518kts
30-Jul-17 14:08 43.119508 -88.440618 88 35251ft 522kts
30-Jul-17 14:09 43.117622 -88.247300 83 35244ft 516kts
30-Jul-17 14:10 43.124310 -88.051778 84 35249ft 516kts
30-Jul-17 14:11 43.130216 -87.857014 84 35243ft 516kts
30-Jul-17 14:12 43.135769 -87.662827 84 35237ft 516kts
30-Jul-17 14:13 43.141030 -87.466696 84 35237ft 516kts
30-Jul-17 14:14 43.145905 -87.273322 85 35235ft 517kts
30-Jul-17 14:15 43.150482 -87.077192 85 35236ft 518kts
30-Jul-17 14:16 43.154658 -86.880232 84 35249ft 522kts
30-Jul-17 14:17 43.158728 -86.682394 84 35252ft 522kts
30-Jul-17 14:18 43.162355 -86.484721 84 35253ft 522kts
30-Jul-17 14:19 43.165605 -86.289545 84 35248ft 524kts
30-Jul-17 14:20 43.168542 -86.091050 84 35247ft 526kts
30-Jul-17 14:21 43.176703 -85.893842 81 35243ft 519kts
30-Jul-17 14:22 43.186536 -85.698120 81 35228ft 519kts
30-Jul-17 14:23 43.196059 -85.500921 81 35225ft 519kts
30-Jul-17 14:24 43.205140 -85.306095 82 35220ft 520kts
30-Jul-17 14:25 43.214046 -85.108939 82 35222ft 519kts
30-Jul-17 14:26 43.222534 -84.912692 83 35221ft 516kts
30-Jul-17 14:27 43.230521 -84.717347 83 35224ft 518kts
30-Jul-17 14:28 43.238329 -84.520487 83 35223ft 520kts
30-Jul-17 14:29 43.255432 -84.326061 78 35217ft 514kts
30-Jul-17 14:30 43.276439 -84.133123 78 35212ft 514kts
30-Jul-17 14:31 43.297036 -83.939229 78 35211ft 517kts
30-Jul-17 14:32 43.317380 -83.744411 78 35208ft 519kts
30-Jul-17 14:33 43.338569 -83.550488 77 35212ft 514kts
30-Jul-17 14:34 43.359684 -83.357246 77 35214ft 514kts
30-Jul-17 14:35 43.380484 -83.163814 78 35209ft 515kts
30-Jul-17 14:36 43.401027 -82.969377 78 35211ft 518kts
30-Jul-17 14:37 43.421245 -82.774112 78 35212ft 515kts
30-Jul-17 14:38 43.440946 -82.580453 78 35203ft 511kts
30-Jul-17 14:39 43.459221 -82.397179 77 34343ft 474kts
30-Jul-17 14:40 43.477206 -82.213088 79 30987ft 493kts
30-Jul-17 14:41 43.484163 -82.027720 87 28820ft 483kts
30-Jul-17 14:42 43.482496 -81.845867 88 26734ft 470kts
30-Jul-17 14:43 43.480505 -81.669169 88 24684ft 458kts
30-Jul-17 14:44 43.478316 -81.497467 88 22672ft 445kts
30-Jul-17 14:45 43.475999 -81.333669 89 20753ft 432kts
30-Jul-17 14:46 43.473480 -81.172054 89 18863ft 418kts
30-Jul-17 14:47 43.471278 -81.041272 89 17337ft 406kts
30-Jul-17 14:48 43.468059 -80.864418 89 15273ft 390kts
30-Jul-17 14:49 43.465192 -80.718295 89 13575ft 377kts
30-Jul-17 14:50 43.462730 -80.599567 90 12103ft 370kts
30-Jul-17 14:51 43.459854 -80.460762 89 10448ft 359kts
30-Jul-17 14:52 43.456670 -80.305576 90 8580ft 348kts
30-Jul-17 14:53 43.453651 -80.174529 87 6954ft 339kts
30-Jul-17 14:54 43.500098 -80.076090 34 5824ft 301kts
30-Jul-17 14:55 43.553577 -80.001114 43 5715ft 268kts
30-Jul-17 14:56 43.605525 -79.926998 43 5717ft 270kts
30-Jul-17 14:57 43.648346 -79.865618 43 5717ft 271kts
30-Jul-17 14:58 43.700471 -79.790720 43 5719ft 271kts
30-Jul-17 14:59 43.752255 -79.716114 43 5721ft 271kts
30-Jul-17 15:00 43.803386 -79.642248 43 5723ft 270kts
30-Jul-17 15:01 43.851236 -79.572849 42 5595ft 229kts
30-Jul-17 15:02 43.890675 -79.515286 42 5057ft 211kts
30-Jul-17 15:03 43.927158 -79.453959 77 4159ft 214kts
30-Jul-17 15:04 43.888586 -79.412868 176 3191ft 212kts
30-Jul-17 15:05 43.838706 -79.428166 226 3005ft 184kts
30-Jul-17 15:06 43.804641 -79.475778 227 2994ft 180kts
30-Jul-17 15:07 43.769820 -79.525630 227 2697ft 181kts
30-Jul-17 15:08 43.736663 -79.573649 227 1810ft 166kts
30-Jul-17 15:09 43.704930 -79.619602 227 894ft 164kts
30-Jul-17 15:10 43.684043 -79.649672 220 559ft 38kts
30-Jul-17 15:11 43.681405 -79.651031 159 559ft 2kts
30-Jul-17 15:12 43.683189 -79.646920 45 559ft 23kts
30-Jul-17 15:13 43.688185 -79.639646 45 559ft 26kts
30-Jul-17 15:14 43.688840 -79.634246 136 559ft 15kts
30-Jul-17 15:15 43.685607 -79.630042 136 559ft 16kts
30-Jul-17 15:16 43.682372 -79.625801 135 559ft 12kts
30-Jul-17 15:17 43.680248 -79.621703 137 559ft 15kts
30-Jul-17 15:18 43.678128 -79.617959 136 559ft 14kts
30-Jul-17 15:19 43.678440 -79.615140 45 559ft 12kts
30-Jul-17 15:20 43.678195 -79.613131 121 559ft 6kts
30-Jul-17 15:21 43.677998 -79.612687 121 559ft 0kts
30-Jul-17 15:22 43.677998 -79.612687 121 559ft 0kts
30-Jul-17 15:23 43.677998 -79.612687 121 559ft 0kts
30-Jul-17 15:24 43.677998 -79.612687 121 559ft 0kts

Navigation Log

Ident Type
Flight plan parsing failed, navigation log unavailable